KLKV

Details ICAO KLKV
Name Lake Co
Region United States
Timezone America/Los_Angeles (UTC-7.0)
Plans Departing 3
Arriving 8
Stats Elevation 4,733 ft / 1,443 m (AMSL)
Location 42.161097° -120.399080°
Runways 1
Magnetic Variation 14.052° E
Sunrise 2018-05-21 12:36:32 UTC / 2018-05-21 05:36:32 Local
Sunset 2018-05-22 03:22:45 UTC / 2018-05-21 20:22:45 Local
Advertisement - Login to hide

Runways

ID Width Length Bearing (true) Bearing (mag) Surface Threshold Offset Overrun Length
16 100 ft / 30 m 5,312 ft / 1,619 m 180.26° 166.21° Asphalt 0 ft / 0 m 0 ft / 0 m
34 100 ft / 30 m 5,312 ft / 1,619 m 0.26° 346.21° Asphalt 0 ft / 0 m 0 ft / 0 m

Map

Weather


0- 5 10 15 20 25 30 35+ Temperature / ° C

Clouds and Precipitation
Forecast for 2018-05-21 18:00 UTC. Updated 24 minutes ago

Ground ~20,000 ft ~40,000 ft Winds

METAR

KLKV 211653Z AUTO 35012G19KT 10SM FEW034 14/08 A3000 RMK AO2 SLP629 T01390078

TAF

Not found

Frequencies

Recorded 135.52 MHz AWOS 3
Unicom 122.80 MHz CTAF/UNICOM
Warning: Do not use this data for real-world aviation or navigation. No guarantee of current accuracy is given.